createdAt,value
2022-07-30T00:00:38.363Z,25.20
2022-07-30T00:03:06.605Z,25.10
2022-07-30T00:05:34.922Z,25.00
2022-07-30T00:08:03.270Z,24.90
2022-07-30T00:10:31.693Z,24.90
2022-07-30T00:12:59.999Z,24.80
2022-07-30T00:15:28.291Z,24.80
2022-07-30T00:17:56.652Z,24.80
2022-07-30T00:20:25.585Z,24.90
2022-07-30T00:22:56.953Z,24.90
2022-07-30T00:25:25.187Z,24.80
2022-07-30T00:27:53.549Z,24.80
2022-07-30T00:30:22.127Z,24.80
2022-07-30T00:32:50.665Z,24.70
2022-07-30T00:35:19.097Z,24.70
2022-07-30T00:37:47.517Z,24.70
2022-07-30T00:40:15.774Z,24.70
2022-07-30T00:42:47.975Z,24.50
2022-07-30T00:45:17.762Z,24.50
2022-07-30T00:47:46.107Z,24.50
2022-07-30T00:50:15.789Z,24.50
2022-07-30T00:52:44.544Z,24.50
2022-07-30T00:55:15.560Z,24.50
2022-07-30T00:57:44.414Z,24.50
2022-07-30T01:00:16.871Z,24.50
2022-07-30T01:02:45.235Z,24.40
2022-07-30T01:05:14.446Z,24.50
2022-07-30T01:07:42.887Z,24.50
2022-07-30T01:10:13.588Z,24.50
2022-07-30T01:12:42.782Z,24.50
2022-07-30T01:15:12.021Z,24.50
2022-07-30T01:17:40.864Z,24.40
2022-07-30T01:20:23.636Z,24.40
2022-07-30T01:23:26.205Z,24.30
2022-07-30T01:26:07.964Z,24.40
2022-07-30T01:28:43.289Z,24.40
2022-07-30T01:31:13.177Z,24.40
2022-07-30T01:33:46.179Z,24.30
2022-07-30T01:36:17.331Z,24.20
2022-07-30T01:38:47.281Z,24.20
2022-07-30T01:41:17.163Z,24.20
2022-07-30T01:43:47.330Z,24.20
2022-07-30T01:46:17.983Z,24.30
2022-07-30T01:48:49.931Z,24.20
2022-07-30T01:51:19.867Z,24.10
2022-07-30T01:53:53.905Z,24.20
2022-07-30T01:56:25.501Z,24.20
2022-07-30T01:58:56.250Z,24.10
2022-07-30T02:01:29.328Z,24.20
2022-07-30T02:04:02.673Z,24.10
2022-07-30T02:06:42.640Z,24.10
2022-07-30T02:09:20.187Z,24.10
2022-07-30T02:11:52.922Z,24.10
2022-07-30T02:14:43.684Z,24.20
2022-07-30T02:17:18.669Z,24.20
2022-07-30T02:19:53.613Z,24.10
2022-07-30T02:22:25.788Z,24.20
2022-07-30T02:24:56.506Z,24.30
2022-07-30T02:27:31.586Z,24.30
2022-07-30T02:30:01.829Z,24.30
2022-07-30T02:32:34.506Z,24.30
2022-07-30T02:35:08.858Z,24.20
2022-07-30T02:37:42.961Z,24.30
2022-07-30T02:40:17.651Z,24.30
2022-07-30T02:42:49.947Z,24.40
2022-07-30T02:45:23.761Z,24.40
2022-07-30T02:48:12.323Z,24.40
2022-07-30T02:51:03.566Z,24.40
2022-07-30T02:53:34.732Z,24.30
2022-07-30T02:56:03.664Z,24.30
2022-07-30T02:58:36.415Z,24.30
2022-07-30T03:01:05.774Z,24.30
2022-07-30T03:03:35.845Z,24.30
2022-07-30T03:06:08.322Z,24.40
2022-07-30T03:08:38.839Z,24.40
2022-07-30T03:11:08.665Z,24.40
2022-07-30T03:13:37.021Z,24.30
2022-07-30T03:16:09.503Z,24.30
2022-07-30T03:18:41.413Z,24.40
2022-07-30T03:21:12.160Z,24.40
2022-07-30T03:23:43.046Z,24.40
2022-07-30T03:26:13.196Z,24.40
2022-07-30T03:28:42.817Z,24.30
2022-07-30T03:31:11.893Z,24.30
2022-07-30T03:33:41.348Z,24.40
2022-07-30T03:36:13.016Z,24.30
2022-07-30T03:38:44.245Z,24.20
2022-07-30T03:41:14.039Z,24.20
2022-07-30T03:43:46.573Z,24.20
2022-07-30T03:46:16.635Z,24.20
2022-07-30T03:48:48.598Z,24.20
2022-07-30T03:51:18.216Z,24.10
2022-07-30T03:53:47.890Z,24.10
2022-07-30T03:56:35.598Z,24.10
2022-07-30T03:59:09.738Z,24.10
2022-07-30T04:01:41.700Z,24.00
2022-07-30T04:04:22.951Z,24.10
2022-07-30T04:06:51.695Z,24.10
2022-07-30T04:09:20.731Z,24.10
2022-07-30T04:11:49.747Z,24.10
2022-07-30T04:14:23.414Z,24.10
2022-07-30T04:17:04.892Z,24.00
2022-07-30T04:19:47.965Z,24.10
2022-07-30T04:22:20.959Z,24.00
2022-07-30T04:24:49.689Z,24.00
2022-07-30T04:27:18.605Z,24.00
2022-07-30T04:29:47.844Z,23.90
2022-07-30T04:32:16.342Z,23.90
2022-07-30T04:35:08.253Z,24.00
2022-07-30T04:38:02.876Z,24.00
2022-07-30T04:40:33.082Z,23.90
2022-07-30T04:43:01.505Z,23.90
2022-07-30T04:45:29.944Z,24.00
2022-07-30T04:48:01.352Z,24.00
2022-07-30T04:50:52.071Z,24.10
2022-07-30T04:53:22.140Z,24.00
2022-07-30T04:56:03.171Z,24.00
2022-07-30T04:58:34.169Z,23.90
2022-07-30T05:01:04.497Z,23.90
2022-07-30T05:03:35.582Z,23.90
2022-07-30T05:06:05.739Z,23.90
2022-07-30T05:08:39.559Z,23.90
2022-07-30T05:11:16.390Z,23.80
2022-07-30T05:13:46.562Z,23.80
2022-07-30T05:16:17.353Z,23.80
2022-07-30T05:18:46.002Z,23.70
2022-07-30T05:21:14.330Z,23.70
2022-07-30T05:23:50.494Z,23.70
2022-07-30T05:26:42.597Z,23.70
2022-07-30T05:29:17.256Z,23.60
2022-07-30T05:32:14.691Z,23.60
2022-07-30T05:34:43.944Z,23.60
2022-07-30T05:37:18.913Z,23.60
2022-07-30T05:40:02.938Z,23.60
2022-07-30T05:42:37.845Z,23.60
2022-07-30T05:45:06.554Z,23.60
2022-07-30T05:47:35.024Z,23.60
2022-07-30T05:50:05.184Z,23.60
2022-07-30T05:52:34.292Z,23.60
2022-07-30T05:55:13.928Z,23.50
2022-07-30T05:57:52.962Z,23.50
2022-07-30T06:00:21.703Z,23.50
2022-07-30T06:02:54.839Z,23.50
2022-07-30T06:05:46.462Z,23.50
2022-07-30T06:08:14.948Z,23.50
2022-07-30T06:10:43.387Z,23.60
2022-07-30T06:13:12.921Z,23.50
2022-07-30T06:15:41.470Z,23.50
2022-07-30T06:18:10.418Z,23.50
2022-07-30T06:20:50.505Z,23.50
2022-07-30T06:23:37.823Z,23.50
2022-07-30T06:26:35.127Z,23.50
2022-07-30T06:29:05.242Z,23.40
2022-07-30T06:31:34.131Z,23.40
2022-07-30T06:34:02.587Z,23.30
2022-07-30T06:36:36.957Z,23.40
2022-07-30T06:39:14.900Z,23.30
2022-07-30T06:42:22.011Z,23.20
2022-07-30T06:45:09.248Z,23.20
2022-07-30T06:48:01.161Z,23.20
2022-07-30T06:50:32.982Z,23.20
2022-07-30T06:53:01.368Z,23.10
2022-07-30T06:55:43.635Z,23.20
2022-07-30T06:58:11.953Z,23.20
2022-07-30T07:01:11.139Z,23.20
2022-07-30T07:03:40.829Z,23.20
2022-07-30T07:06:09.747Z,23.20
2022-07-30T07:08:39.098Z,23.20
2022-07-30T07:11:09.502Z,23.20
2022-07-30T07:14:00.300Z,23.30
2022-07-30T07:16:35.745Z,23.30
2022-07-30T07:19:59.766Z,23.30
2022-07-30T07:22:15.231Z,23.40
2022-07-30T07:24:45.602Z,23.40
2022-07-30T07:27:18.663Z,23.40
2022-07-30T07:30:05.038Z,23.40
2022-07-30T07:32:37.633Z,23.50
2022-07-30T07:35:07.066Z,23.50
2022-07-30T07:37:38.763Z,23.60
2022-07-30T07:40:09.624Z,23.60
2022-07-30T07:42:42.387Z,23.60
2022-07-30T07:45:11.317Z,23.70
2022-07-30T07:47:53.427Z,23.70
2022-07-30T07:50:37.776Z,23.80
2022-07-30T07:53:07.678Z,23.90
2022-07-30T07:55:36.488Z,24.00
2022-07-30T07:58:04.921Z,24.10
2022-07-30T08:00:34.960Z,24.10
2022-07-30T08:03:04.081Z,24.20
2022-07-30T08:05:58.170Z,24.30
2022-07-30T08:08:48.631Z,24.40
2022-07-30T08:11:39.285Z,24.50
2022-07-30T08:14:42.667Z,24.50
2022-07-30T08:17:29.058Z,24.60
2022-07-30T08:20:15.745Z,24.60
2022-07-30T08:22:44.439Z,24.70
2022-07-30T08:25:21.817Z,24.80
2022-07-30T08:27:51.136Z,24.70
2022-07-30T08:30:21.418Z,24.80
2022-07-30T08:32:49.893Z,24.90
2022-07-30T08:35:18.337Z,25.00
2022-07-30T08:37:46.709Z,25.10
2022-07-30T08:40:19.455Z,25.20
2022-07-30T08:43:00.586Z,25.30
2022-07-30T08:45:35.182Z,25.30
2022-07-30T08:48:23.109Z,25.40
2022-07-30T08:50:52.576Z,25.60
2022-07-30T08:53:36.877Z,25.70
2022-07-30T08:56:07.528Z,25.80
2022-07-30T08:58:37.495Z,25.90
2022-07-30T09:01:07.252Z,26.10
2022-07-30T09:03:44.084Z,26.10
2022-07-30T09:06:13.302Z,26.30
2022-07-30T09:08:43.074Z,26.20
2022-07-30T09:11:12.230Z,26.30
2022-07-30T09:13:42.122Z,26.40
2022-07-30T09:16:21.706Z,26.40
2022-07-30T09:18:51.737Z,26.50
2022-07-30T09:21:25.965Z,26.60
2022-07-30T09:24:14.040Z,26.60
2022-07-30T09:27:04.644Z,26.70
2022-07-30T09:29:59.438Z,26.70
2022-07-30T09:32:57.201Z,26.70
2022-07-30T09:36:05.122Z,26.70
2022-07-30T09:38:53.607Z,26.60
2022-07-30T09:41:40.190Z,26.60
2022-07-30T09:44:25.234Z,26.60
2022-07-30T09:46:58.260Z,26.60
2022-07-30T09:49:34.685Z,26.60
2022-07-30T09:52:04.273Z,26.50
2022-07-30T09:54:51.643Z,26.60
2022-07-30T09:57:27.462Z,26.80
2022-07-30T10:00:26.733Z,26.80
2022-07-30T10:03:33.870Z,26.80
2022-07-30T10:06:41.892Z,26.90
2022-07-30T10:09:43.384Z,27.10
2022-07-30T10:12:15.320Z,27.10
2022-07-30T10:14:50.006Z,27.20
2022-07-30T10:17:20.918Z,27.00
2022-07-30T10:20:10.015Z,27.00
2022-07-30T10:22:41.042Z,27.00
2022-07-30T10:25:49.676Z,27.00
2022-07-30T10:28:42.089Z,27.10
2022-07-30T10:31:49.466Z,27.20
2022-07-30T10:33:59.303Z,27.30
2022-07-30T10:36:28.413Z,27.20
2022-07-30T10:38:57.539Z,27.30
2022-07-30T10:41:47.383Z,27.40
2022-07-30T10:44:31.870Z,27.50
2022-07-30T10:47:11.951Z,27.40
2022-07-30T10:49:43.030Z,27.40
2022-07-30T10:52:12.715Z,27.40
2022-07-30T10:54:45.638Z,27.30
2022-07-30T10:57:22.760Z,27.40
2022-07-30T10:59:54.529Z,27.50
2022-07-30T11:02:24.044Z,27.50
2022-07-30T11:05:13.670Z,27.60
2022-07-30T11:07:44.034Z,27.60
2022-07-30T11:10:38.631Z,27.50
2022-07-30T11:13:10.626Z,27.50
2022-07-30T11:15:59.866Z,27.50
2022-07-30T11:18:29.147Z,27.50
2022-07-30T11:21:21.590Z,27.60
2022-07-30T11:23:54.949Z,27.70
2022-07-30T11:26:41.173Z,27.70
2022-07-30T11:29:50.519Z,27.80
2022-07-30T11:32:33.313Z,27.80
2022-07-30T11:35:13.486Z,27.80
2022-07-30T11:38:00.847Z,27.90
2022-07-30T11:40:35.854Z,27.90
2022-07-30T11:43:36.280Z,27.90
2022-07-30T11:46:07.635Z,27.90
2022-07-30T11:48:41.907Z,27.90
2022-07-30T11:51:10.939Z,27.80
2022-07-30T11:53:39.188Z,27.80
2022-07-30T11:56:07.834Z,27.90
2022-07-30T11:58:39.371Z,27.80
2022-07-30T12:01:14.495Z,27.70
2022-07-30T12:03:46.635Z,27.60
2022-07-30T12:06:15.609Z,27.50
2022-07-30T12:08:45.938Z,27.50
2022-07-30T12:11:14.872Z,27.60
2022-07-30T12:13:55.329Z,27.60
2022-07-30T12:16:23.733Z,27.70
2022-07-30T12:18:52.342Z,27.70
2022-07-30T12:21:20.908Z,27.70
2022-07-30T12:24:03.566Z,27.80
2022-07-30T12:26:35.471Z,27.80
2022-07-30T12:29:06.850Z,27.80
2022-07-30T12:31:39.727Z,27.90
2022-07-30T12:34:25.012Z,28.10
2022-07-30T12:36:54.036Z,28.00
2022-07-30T12:39:27.784Z,28.10
2022-07-30T12:41:56.321Z,28.10
2022-07-30T12:44:42.323Z,28.10
2022-07-30T12:47:31.568Z,28.10
2022-07-30T12:50:01.954Z,28.10
2022-07-30T12:52:35.117Z,28.00
2022-07-30T12:55:12.378Z,28.10
2022-07-30T12:58:07.991Z,28.20
2022-07-30T13:00:47.568Z,28.20
2022-07-30T13:03:27.082Z,28.10
2022-07-30T13:05:57.105Z,28.10
2022-07-30T13:08:54.357Z,28.10
2022-07-30T13:11:25.016Z,28.20
2022-07-30T13:13:54.445Z,28.10
2022-07-30T13:16:22.827Z,28.00
2022-07-30T13:18:50.989Z,28.00
2022-07-30T13:21:19.183Z,28.00
2022-07-30T13:23:47.524Z,28.10
2022-07-30T13:26:15.618Z,28.20
2022-07-30T13:28:44.156Z,28.20
2022-07-30T13:31:12.666Z,28.10
2022-07-30T13:33:40.881Z,28.20
2022-07-30T13:36:09.271Z,28.20
2022-07-30T13:38:37.465Z,28.20
2022-07-30T13:41:06.363Z,28.30
2022-07-30T13:43:34.836Z,28.40
2022-07-30T13:46:04.269Z,28.40
2022-07-30T13:48:35.964Z,28.40
2022-07-30T13:51:05.574Z,28.40
2022-07-30T13:53:34.021Z,28.50
2022-07-30T13:56:02.337Z,28.40
2022-07-30T13:58:35.739Z,28.50
2022-07-30T14:01:05.002Z,28.50
2022-07-30T14:03:33.560Z,28.50
2022-07-30T14:06:10.108Z,28.50
2022-07-30T14:08:40.343Z,28.50
2022-07-30T14:11:08.629Z,28.60
2022-07-30T14:13:36.971Z,28.70
2022-07-30T14:16:10.673Z,28.60
2022-07-30T14:18:51.120Z,28.60
2022-07-30T14:21:19.397Z,28.60
2022-07-30T14:23:47.803Z,28.60
2022-07-30T14:26:16.352Z,28.50
2022-07-30T14:28:44.541Z,28.50
2022-07-30T14:31:12.796Z,28.50
2022-07-30T14:33:41.210Z,28.60
2022-07-30T14:36:09.631Z,28.70
2022-07-30T14:38:37.986Z,28.80
2022-07-30T14:41:06.726Z,28.90
2022-07-30T14:43:35.052Z,28.90
2022-07-30T14:46:03.625Z,28.80
2022-07-30T14:48:31.862Z,28.70
2022-07-30T14:51:21.774Z,28.70
2022-07-30T14:53:48.966Z,28.70
2022-07-30T14:56:19.980Z,28.70
2022-07-30T14:58:48.389Z,28.70
2022-07-30T15:01:17.245Z,28.90
2022-07-30T15:03:46.592Z,28.90
2022-07-30T15:06:15.281Z,29.00
2022-07-30T15:08:44.154Z,28.90
2022-07-30T15:11:12.480Z,28.90
2022-07-30T15:13:50.414Z,29.00
2022-07-30T15:16:19.551Z,29.00
2022-07-30T15:18:47.860Z,29.00
2022-07-30T15:21:16.431Z,29.10
2022-07-30T15:23:44.623Z,29.20
2022-07-30T15:26:13.088Z,29.30
2022-07-30T15:28:41.648Z,29.40
2022-07-30T15:31:10.160Z,29.60
2022-07-30T15:33:38.578Z,29.50
2022-07-30T15:36:07.112Z,29.60
2022-07-30T15:38:35.423Z,29.90
2022-07-30T15:41:03.983Z,29.90
2022-07-30T15:43:32.616Z,29.90
2022-07-30T15:46:00.978Z,29.70
2022-07-30T15:48:29.385Z,29.70
2022-07-30T15:51:05.271Z,29.50
2022-07-30T15:53:33.881Z,29.40
2022-07-30T15:56:02.113Z,29.30
2022-07-30T15:58:30.513Z,29.20
2022-07-30T16:00:58.852Z,29.30
2022-07-30T16:03:26.988Z,29.30
2022-07-30T16:05:55.352Z,29.50
2022-07-30T16:08:23.671Z,29.70
2022-07-30T16:10:51.949Z,29.70
2022-07-30T16:13:20.437Z,29.70
2022-07-30T16:15:48.631Z,29.60
2022-07-30T16:18:17.166Z,29.60
2022-07-30T16:20:45.398Z,29.50
2022-07-30T16:23:18.179Z,29.40
2022-07-30T16:25:49.441Z,29.40
2022-07-30T16:28:18.069Z,29.50
2022-07-30T16:30:51.354Z,29.20
2022-07-30T16:33:20.971Z,29.30
2022-07-30T16:35:50.980Z,29.40
2022-07-30T16:38:20.904Z,29.40
2022-07-30T16:40:49.879Z,29.50
2022-07-30T16:43:19.717Z,29.70
2022-07-30T16:45:48.673Z,30.10
2022-07-30T16:48:17.050Z,30.70
2022-07-30T16:50:45.351Z,31.50
2022-07-30T16:53:14.642Z,32.00
2022-07-30T16:55:44.281Z,32.60
2022-07-30T16:58:12.957Z,32.90
2022-07-30T17:00:41.729Z,33.30
2022-07-30T17:03:10.170Z,33.20
2022-07-30T17:05:45.215Z,33.30
2022-07-30T17:08:14.657Z,33.50
2022-07-30T17:10:46.519Z,34.10
2022-07-30T17:13:16.344Z,33.70
2022-07-30T17:15:45.547Z,34.30
2022-07-30T17:18:15.462Z,34.30
2022-07-30T17:20:44.154Z,34.70
2022-07-30T17:25:41.173Z,33.90
2022-07-30T17:28:09.886Z,33.80
2022-07-30T17:30:38.145Z,34.40
2022-07-30T17:33:06.797Z,34.60
2022-07-30T17:35:35.241Z,34.20
2022-07-30T17:38:03.626Z,34.40
2022-07-30T17:40:32.966Z,33.80
2022-07-30T17:43:02.408Z,33.00
2022-07-30T17:45:35.610Z,32.70
2022-07-30T17:48:05.486Z,31.90
2022-07-30T17:50:34.594Z,31.30
2022-07-30T17:53:04.248Z,30.70
2022-07-30T17:55:33.633Z,30.00
2022-07-30T17:58:03.479Z,29.70
2022-07-30T18:00:31.879Z,29.40
2022-07-30T18:03:00.189Z,29.10
2022-07-30T18:05:28.656Z,28.90
2022-07-30T18:07:56.938Z,28.80
2022-07-30T18:10:25.260Z,28.60
2022-07-30T18:12:53.741Z,28.50
2022-07-30T18:15:22.614Z,28.30
2022-07-30T18:17:50.926Z,28.20
2022-07-30T18:20:19.319Z,28.10
2022-07-30T18:22:51.537Z,28.10
2022-07-30T18:25:20.382Z,28.10
2022-07-30T18:27:52.119Z,27.90
2022-07-30T18:30:22.341Z,27.80
2022-07-30T18:32:51.232Z,27.70
2022-07-30T18:35:19.446Z,27.70
2022-07-30T18:37:47.777Z,27.60
2022-07-30T18:40:21.858Z,27.70
2022-07-30T18:42:52.521Z,27.60
2022-07-30T18:45:20.829Z,27.50
2022-07-30T18:47:49.091Z,27.40
2022-07-30T18:50:17.571Z,27.40
2022-07-30T18:52:46.056Z,27.30
2022-07-30T18:55:14.999Z,27.20
2022-07-30T18:57:43.372Z,27.20
2022-07-30T19:00:34.443Z,27.20
2022-07-30T19:03:02.621Z,27.20
2022-07-30T19:05:30.792Z,27.20
2022-07-30T19:07:59.291Z,27.10
2022-07-30T19:10:27.883Z,27.10
2022-07-30T19:12:56.339Z,27.10
2022-07-30T19:15:25.055Z,27.00
2022-07-30T19:17:53.713Z,27.10
2022-07-30T19:20:22.229Z,27.00
2022-07-30T19:22:51.640Z,27.00
2022-07-30T19:25:19.998Z,27.00
2022-07-30T19:27:48.382Z,27.00
2022-07-30T19:30:16.865Z,26.90
2022-07-30T19:32:45.210Z,26.90
2022-07-30T19:35:14.352Z,26.90
2022-07-30T19:37:43.110Z,26.90
2022-07-30T19:40:12.862Z,26.90
2022-07-30T19:42:41.735Z,26.90
2022-07-30T19:45:11.331Z,26.90
2022-07-30T19:47:42.307Z,26.90
2022-07-30T19:50:11.823Z,26.90
2022-07-30T19:52:50.989Z,26.90
2022-07-30T19:55:35.344Z,26.90
2022-07-30T19:58:16.187Z,26.80
2022-07-30T20:00:49.576Z,26.80
2022-07-30T20:03:25.603Z,26.80
2022-07-30T20:05:57.495Z,26.80
2022-07-30T20:08:30.901Z,26.70
2022-07-30T20:10:59.405Z,26.70
2022-07-30T20:13:43.981Z,26.80
2022-07-30T20:16:15.508Z,26.70
2022-07-30T20:18:46.265Z,26.70
2022-07-30T20:21:16.457Z,26.70
2022-07-30T20:23:45.370Z,26.70
2022-07-30T20:26:14.657Z,26.70
2022-07-30T20:28:46.888Z,26.60
2022-07-30T20:31:20.681Z,26.60
2022-07-30T20:36:37.557Z,26.50
2022-07-30T20:39:05.888Z,26.60
2022-07-30T20:41:33.994Z,26.60
2022-07-30T20:44:02.168Z,26.60
2022-07-30T20:46:31.463Z,26.60
2022-07-30T20:48:59.580Z,26.60
2022-07-30T20:51:33.499Z,26.60
2022-07-30T20:54:02.219Z,26.60
2022-07-30T20:56:31.076Z,26.70
2022-07-30T20:58:59.146Z,26.70
2022-07-30T21:01:27.685Z,26.70
2022-07-30T21:03:56.670Z,26.70
2022-07-30T21:06:26.180Z,26.70
2022-07-30T21:08:54.496Z,26.70
2022-07-30T21:11:23.548Z,26.70
2022-07-30T21:13:51.924Z,26.70
2022-07-30T21:16:20.143Z,26.70
2022-07-30T21:18:50.453Z,26.60
2022-07-30T21:21:28.979Z,26.60
2022-07-30T21:24:11.554Z,26.70
2022-07-30T21:26:55.687Z,26.70
2022-07-30T21:29:23.938Z,26.70
2022-07-30T21:31:59.012Z,26.70
2022-07-30T21:34:36.074Z,26.60
2022-07-30T21:37:10.443Z,26.70
2022-07-30T21:39:41.431Z,26.70
2022-07-30T21:42:10.213Z,26.70
2022-07-30T21:44:39.548Z,26.70
2022-07-30T21:47:10.778Z,26.70
2022-07-30T21:49:39.861Z,26.70
2022-07-30T21:52:09.029Z,26.60
2022-07-30T21:54:45.656Z,26.60
2022-07-30T21:57:23.159Z,26.60
2022-07-30T21:59:55.360Z,26.60
2022-07-30T22:02:24.864Z,26.60
2022-07-30T22:04:54.277Z,26.60
2022-07-30T22:07:22.669Z,26.50
2022-07-30T22:09:50.967Z,26.60
2022-07-30T22:12:19.206Z,26.60
2022-07-30T22:14:49.603Z,26.50
2022-07-30T22:17:23.916Z,26.50
2022-07-30T22:20:08.570Z,26.50
2022-07-30T22:22:39.929Z,26.50
2022-07-30T22:25:09.613Z,26.50
2022-07-30T22:27:39.991Z,26.50
2022-07-30T22:30:26.542Z,26.50
2022-07-30T22:32:56.100Z,26.50
2022-07-30T22:35:32.341Z,26.50
2022-07-30T22:38:04.775Z,26.50
2022-07-30T22:40:33.443Z,26.40
2022-07-30T22:43:07.673Z,26.40
2022-07-30T22:45:47.996Z,26.40
2022-07-30T22:48:20.567Z,26.40
2022-07-30T22:50:55.298Z,26.40
2022-07-30T22:54:10.496Z,26.40
2022-07-30T22:56:15.579Z,26.30
2022-07-30T22:58:44.716Z,26.30
2022-07-30T23:01:16.862Z,26.20
2022-07-30T23:03:45.520Z,26.20
2022-07-30T23:06:16.485Z,26.20
2022-07-30T23:08:44.752Z,26.20
2022-07-30T23:11:13.016Z,26.20
2022-07-30T23:12:18.143Z,26.50
2022-07-30T23:13:41.406Z,26.20
2022-07-30T23:16:10.257Z,26.10
2022-07-30T23:18:38.409Z,26.20
2022-07-30T23:21:06.640Z,26.20
2022-07-30T23:23:35.037Z,26.10
2022-07-30T23:26:06.173Z,26.10
2022-07-30T23:28:34.725Z,26.10
2022-07-30T23:31:03.347Z,26.10
2022-07-30T23:33:32.516Z,26.20
2022-07-30T23:36:00.800Z,26.20
2022-07-30T23:38:29.034Z,26.20
2022-07-30T23:40:57.424Z,26.10
2022-07-30T23:43:25.640Z,26.10
2022-07-30T23:45:53.859Z,26.00
2022-07-30T23:48:22.067Z,26.00
2022-07-30T23:50:50.324Z,26.00
2022-07-30T23:53:18.867Z,26.00
2022-07-30T23:55:49.250Z,26.00
2022-07-30T23:58:18.238Z,26.00
